Time;durP1;ratioP1;P1;durP2;ratioP2;P2;SDS_P1;SDS_P2;PMS_P1;PMS_P2;Temp;Humidity;BMP_temperature;BMP_pressure;BME280_temperature;BME280_humidity;BME280_pressure;Samples;Min_cycle;Max_cycle;Signal;HPM_P1;HPM_P2
2022/12/16 00:01:48;;;;;;;13.48;8.32;;;;;;;1.25;100.00;101100.94;5009816;28;20096;-64
2022/12/16 00:04:16;;;;;;;13.52;8.40;;;;;;;1.22;100.00;101095.72;5010467;28;20049;-63
2022/12/16 00:06:41;;;;;;;13.45;7.18;;;;;;;1.23;100.00;101094.84;5010744;28;20543;-63
2022/12/16 00:09:07;;;;;;;9.95;6.55;;;;;;;1.23;100.00;101094.84;5009292;28;20030;-61
2022/12/16 00:11:32;;;;;;;18.90;7.05;;;;;;;1.23;100.00;101091.38;5009751;28;20461;-64
2022/12/16 00:13:58;;;;;;;10.88;5.60;;;;;;;1.24;100.00;101093.97;5010004;28;20034;-64
2022/12/16 00:16:23;;;;;;;11.15;5.00;;;;;;;1.18;100.00;101086.16;5008956;28;20021;-65
2022/12/16 00:18:48;;;;;;;14.95;4.72;;;;;;;1.13;100.00;101108.59;5010687;28;20037;-64
2022/12/16 00:21:17;;;;;;;10.70;4.88;;;;;;;1.09;100.00;101104.25;5010075;28;20389;-65
2022/12/16 00:23:43;;;;;;;10.10;4.85;;;;;;;1.13;100.00;101106.00;5008431;28;20108;-60
2022/12/16 00:26:09;;;;;;;15.70;5.15;;;;;;;1.11;100.00;101108.59;5010187;28;20583;-63
2022/12/16 00:28:35;;;;;;;11.50;4.45;;;;;;;1.10;100.00;101112.03;4995902;28;20022;-65
2022/12/16 00:31:00;;;;;;;8.05;4.00;;;;;;;1.10;100.00;101118.94;4989253;28;20029;-64
2022/12/16 00:33:26;;;;;;;10.18;3.60;;;;;;;1.24;100.00;101119.94;4989784;28;20117;-64
2022/12/16 00:35:52;;;;;;;13.32;3.60;;;;;;;1.44;100.00;101115.81;4990501;28;20029;-64
2022/12/16 00:38:19;;;;;;;11.90;3.78;;;;;;;1.41;100.00;101121.81;4990379;28;20026;-65
2022/12/16 00:40:44;;;;;;;7.80;3.30;;;;;;;1.53;100.00;101122.81;4990529;28;20042;-63
2022/12/16 00:43:10;;;;;;;11.95;3.40;;;;;;;1.55;100.00;101127.16;4989820;28;20042;-62
2022/12/16 00:45:35;;;;;;;10.13;2.85;;;;;;;1.53;100.00;101126.25;4990172;28;20023;-63
2022/12/16 00:48:00;;;;;;;13.30;2.65;;;;;;;1.35;100.00;101127.84;5004163;28;20015;-61
2022/12/16 00:50:26;;;;;;;15.05;3.00;;;;;;;1.32;100.00;101134.75;4990565;28;20109;-65
2022/12/16 00:52:51;;;;;;;7.30;2.95;;;;;;;1.35;100.00;101126.97;4990652;28;20499;-65
2022/12/16 00:55:18;;;;;;;4.97;2.75;;;;;;;1.35;100.00;101135.63;4990056;28;20428;-64
2022/12/16 00:57:43;;;;;;;10.57;2.95;;;;;;;1.31;100.00;101143.38;5003216;28;20398;-63
2022/12/16 01:00:11;;;;;;;12.23;3.13;;;;;;;1.30;100.00;101139.03;5009290;28;20670;-62
2022/12/16 01:02:41;;;;;;;14.20;2.53;;;;;;;1.20;100.00;101141.53;5008464;28;20113;-64
2022/12/16 01:05:12;;;;;;;9.73;2.80;;;;;;;1.14;100.00;101138.88;5009421;28;20037;-63
2022/12/16 01:07:37;;;;;;;12.07;3.15;;;;;;;1.09;100.00;101145.78;5009625;28;20030;-63
2022/12/16 01:10:04;;;;;;;9.95;2.83;;;;;;;1.07;100.00;101144.88;5009480;28;20063;-62
2022/12/16 01:12:30;;;;;;;6.72;2.50;;;;;;;1.12;100.00;101140.63;5008514;28;20033;-63
2022/12/16 01:14:56;;;;;;;9.68;2.75;;;;;;;1.12;100.00;101140.63;5007228;28;20030;-65
2022/12/16 01:17:21;;;;;;;6.93;2.70;;;;;;;1.09;100.00;101143.16;5007794;28;20506;-65
2022/12/16 01:19:46;;;;;;;10.82;2.72;;;;;;;1.05;100.00;101139.66;5007876;28;20132;-62
2022/12/16 01:22:13;;;;;;;10.50;2.67;;;;;;;1.05;100.00;101141.41;5008751;28;20044;-64
2022/12/16 01:24:38;;;;;;;8.98;2.70;;;;;;;1.07;100.00;101147.47;5009057;28;20045;-64
2022/12/16 01:27:03;;;;;;;7.40;2.58;;;;;;;1.07;100.00;101147.47;5009200;28;20022;-65
2022/12/16 01:29:29;;;;;;;8.45;2.20;;;;;;;1.07;100.00;101160.44;5007918;28;20075;-66
2022/12/16 01:31:54;;;;;;;7.43;2.35;;;;;;;1.09;100.00;101159.59;5008474;28;20026;-60
2022/12/16 01:34:19;;;;;;;4.68;2.20;;;;;;;1.08;100.00;101163.06;5009085;28;20054;-65
2022/12/16 01:36:45;;;;;;;5.75;2.30;;;;;;;1.07;100.00;101168.22;5009287;28;20473;-64
2022/12/16 01:39:10;;;;;;;5.93;2.13;;;;;;;0.97;100.00;101172.47;5007454;28;20049;-64
2022/12/16 01:41:36;;;;;;;4.70;2.55;;;;;;;0.94;100.00;101181.09;5008727;28;20032;-63
2022/12/16 01:44:20;;;;;;;12.73;2.92;;;;;;;0.93;100.00;101186.25;5008289;28;20022;-63
2022/12/16 01:46:49;;;;;;;5.90;2.33;;;;;;;0.95;100.00;101198.38;5008682;28;20037;-64
2022/12/16 01:49:37;;;;;;;17.67;3.90;;;;;;;0.89;100.00;101198.31;5008220;28;20026;-63
2022/12/16 01:52:05;;;;;;;9.15;2.17;;;;;;;0.96;100.00;101202.72;5007460;28;20033;-65
2022/12/16 01:54:39;;;;;;;9.27;2.78;;;;;;;0.93;100.00;101197.50;5007751;28;20034;-64
2022/12/16 01:57:47;;;;;;;5.63;1.90;;;;;;;0.94;100.00;101203.56;5007692;28;20033;-69
2022/12/16 02:00:13;;;;;;;8.47;2.90;;;;;;;0.89;100.00;101208.69;5007537;28;20655;-60
2022/12/16 02:02:40;;;;;;;10.45;2.65;;;;;;;0.93;100.00;101213.06;5008401;28;20280;-64
2022/12/16 02:05:20;;;;;;;9.30;2.45;;;;;;;0.85;100.00;101214.69;5007653;28;20026;-63
2022/12/16 02:08:10;;;;;;;8.00;2.95;;;;;;;0.87;100.00;101207.78;5009400;28;20029;-66
2022/12/16 02:10:41;;;;;;;7.07;2.58;;;;;;;0.78;100.00;101220.66;5008584;28;20481;-64
2022/12/16 02:13:30;;;;;;;10.88;2.53;;;;;;;0.74;100.00;101224.94;5007434;28;20030;-64
2022/12/16 02:16:26;;;;;;;5.50;2.30;;;;;;;0.74;100.00;101231.00;5007617;28;20546;-57
2022/12/16 02:19:36;;;;;;;10.07;3.22;;;;;;;0.69;100.00;101230.06;5008479;28;20065;-67
2022/12/16 02:22:38;;;;;;;7.85;2.80;;;;;;;0.69;100.00;101227.47;4948037;29;20031;-64
2022/12/16 02:25:16;;;;;;;9.05;2.60;;;;;;;0.65;100.00;101233.47;4988235;28;20030;-66
2022/12/16 02:27:50;;;;;;;5.80;2.67;;;;;;;0.66;100.00;101229.16;4989133;28;20027;-55
2022/12/16 02:30:21;;;;;;;7.20;2.45;;;;;;;0.66;100.00;101232.59;4989499;28;20046;-63
2022/12/16 02:32:55;;;;;;;9.30;2.75;;;;;;;0.65;100.00;101240.38;4989904;28;20027;-64
2022/12/16 02:35:46;;;;;;;3.97;2.15;;;;;;;0.64;100.00;101229.13;5009189;28;20483;-61
2022/12/16 02:38:13;;;;;;;11.43;2.70;;;;;;;0.63;100.00;101242.94;5007661;28;20037;-65
2022/12/16 02:40:43;;;;;;;8.25;2.60;;;;;;;0.50;100.00;101237.59;5008665;28;20560;-65
2022/12/16 02:43:10;;;;;;;;;;;;;;;0.57;100.00;101248.06;5008521;28;20046;-63
2022/12/16 02:45:36;;;;;;;12.50;3.10;;;;;;;0.41;100.00;101241.75;5008933;28;19921;-64
2022/12/16 02:48:01;;;;;;;9.25;2.25;;;;;;;0.41;100.00;101242.63;5009385;28;20034;-65
2022/12/16 02:50:31;;;;;;;11.70;2.30;;;;;;;0.39;100.00;101243.47;5012847;28;20030;-65
2022/12/16 02:52:57;;;;;;;5.30;1.92;;;;;;;0.39;100.00;101243.47;5009839;28;20026;-61
2022/12/16 02:55:30;;;;;;;9.10;1.95;;;;;;;0.39;100.00;101241.72;5011078;28;20030;-63
2022/12/16 02:58:05;;;;;;;13.10;2.60;;;;;;;0.42;100.00;101248.72;5010053;28;20022;-63
2022/12/16 03:00:40;;;;;;;11.38;2.70;;;;;;;0.37;100.00;101249.47;5012029;28;20416;-65
2022/12/16 03:03:10;;;;;;;11.90;2.42;;;;;;;0.37;100.00;101256.41;5011206;28;20021;-56
2022/12/16 03:05:42;;;;;;;6.10;2.20;;;;;;;0.41;100.00;101260.78;5012056;28;20105;-63
2022/12/16 03:08:12;;;;;;;7.85;2.20;;;;;;;0.47;100.00;101266.06;5010413;28;20030;-59
2022/12/16 03:10:45;;;;;;;6.90;2.22;;;;;;;0.47;100.00;101267.78;5012099;28;20030;-63
2022/12/16 03:13:12;;;;;;;15.82;2.30;;;;;;;0.40;100.00;101279.78;5011870;28;20163;-64
2022/12/16 03:15:38;;;;;;;5.20;2.33;;;;;;;0.39;100.00;101275.44;5010843;28;20072;-59
2022/12/16 03:18:05;;;;;;;8.60;2.00;;;;;;;0.39;100.00;101280.63;5011065;28;20386;-64
2022/12/16 03:20:55;;;;;;;7.75;2.20;;;;;;;0.34;100.00;101279.69;5011221;28;20018;-64
2022/12/16 03:23:45;;;;;;;12.57;2.08;;;;;;;0.32;100.00;101278.78;5011272;28;20040;-65
2022/12/16 03:26:52;;;;;;;10.18;1.70;;;;;;;0.29;100.00;101284.81;5010097;28;20108;-64
2022/12/16 03:29:30;;;;;;;12.23;2.40;;;;;;;0.30;100.00;101286.53;4950603;28;20035;-65
2022/12/16 03:32:02;;;;;;;8.10;1.80;;;;;;;0.25;100.00;101294.25;5004265;28;20511;-59
2022/12/16 03:34:33;;;;;;;5.88;2.00;;;;;;;0.24;100.00;101302.03;5010398;28;20515;-65
2022/12/16 03:37:02;;;;;;;7.78;2.42;;;;;;;0.16;100.00;101294.09;5011078;28;20026;-64
2022/12/16 03:39:29;;;;;;;11.25;2.20;;;;;;;0.08;100.00;101295.69;5010217;28;20022;-67
2022/12/16 03:41:56;;;;;;;15.70;2.15;;;;;;;0.05;100.00;101296.50;5008664;28;20153;-61
2022/12/16 03:44:24;;;;;;;5.97;1.77;;;;;;;0.07;100.00;101304.31;3878576;23;22169;-58
2022/12/16 03:46:49;;;;;;;10.55;2.03;;;;;;;0.04;100.00;101307.72;4977460;28;20058;-67
2022/12/16 03:49:15;;;;;;;8.27;1.90;;;;;;;-0.03;100.00;101304.16;5009236;28;20061;-64
2022/12/16 03:51:40;;;;;;;9.32;2.22;;;;;;;0.07;100.00;101300.00;4993139;28;20130;-64
2022/12/16 03:54:05;;;;;;;7.30;2.17;;;;;;;0.08;100.00;101301.75;5009218;28;20026;-64
2022/12/16 03:56:31;;;;;;;11.93;2.45;;;;;;;-0.03;100.00;101306.72;5009582;28;20022;-65
2022/12/16 03:58:57;;;;;;;14.43;2.00;;;;;;;-0.13;100.00;101304.81;5009158;28;20034;-65
2022/12/16 04:01:22;;;;;;;11.27;2.22;;;;;;;-0.15;100.00;101309.13;5010200;28;20022;-65
2022/12/16 04:03:48;;;;;;;4.80;2.53;;;;;;;-0.11;100.00;101310.03;5010373;28;20384;-61
2022/12/16 04:06:17;;;;;;;10.65;2.40;;;;;;;-0.08;100.00;101320.47;5010467;28;20075;-64
2022/12/16 04:08:42;;;;;;;;;;;;;;;-0.07;100.00;101315.31;5010743;28;20064;-65
2022/12/16 04:25:02;;;;;;;7.53;2.10;;;;;;;-0.11;100.00;101321.28;4994564;28;20088;-66
2022/12/16 04:27:28;;;;;;;8.52;2.65;;;;;;;-0.21;100.00;101330.59;5009978;28;20076;-65
